createdAt,value
2023-01-31T00:00:15.691Z,79.63
2023-01-31T00:02:42.687Z,79.81
2023-01-31T00:05:09.917Z,80.00
2023-01-31T00:07:37.464Z,79.42
2023-01-31T00:10:04.899Z,78.65
2023-01-31T00:12:31.753Z,77.58
2023-01-31T00:14:58.788Z,77.40
2023-01-31T00:17:26.279Z,76.97
2023-01-31T00:19:53.324Z,76.68
2023-01-31T00:22:20.264Z,76.50
2023-01-31T00:24:47.443Z,76.70
2023-01-31T00:27:14.363Z,77.54
2023-01-31T00:29:41.194Z,78.34
2023-01-31T00:32:08.401Z,78.04
2023-01-31T00:34:35.874Z,77.57
2023-01-31T00:37:02.984Z,77.33
2023-01-31T00:39:30.073Z,77.20
2023-01-31T00:41:57.058Z,76.57
2023-01-31T00:44:24.101Z,76.72
2023-01-31T00:46:51.121Z,77.19
2023-01-31T00:49:17.991Z,77.80
2023-01-31T00:51:45.202Z,77.58
2023-01-31T00:54:11.897Z,79.31
2023-01-31T00:56:38.597Z,78.25
2023-01-31T00:59:08.669Z,77.60
2023-01-31T01:01:36.067Z,78.30
2023-01-31T01:04:02.991Z,78.25
2023-01-31T01:06:29.788Z,77.13
2023-01-31T01:08:57.956Z,77.29
2023-01-31T01:11:26.919Z,77.30
2023-01-31T01:13:53.791Z,77.24
2023-01-31T01:16:22.357Z,77.55
2023-01-31T01:18:50.449Z,77.79
2023-01-31T01:21:19.013Z,78.08
2023-01-31T01:23:48.335Z,77.91
2023-01-31T01:26:16.900Z,77.47
2023-01-31T01:28:43.993Z,78.00
2023-01-31T01:31:11.618Z,78.27
2023-01-31T01:33:38.465Z,78.27
2023-01-31T01:36:06.680Z,78.76
2023-01-31T01:38:35.456Z,78.07
2023-01-31T01:41:02.222Z,77.79
2023-01-31T01:43:32.206Z,77.91
2023-01-31T01:45:59.349Z,77.34
2023-01-31T01:48:27.818Z,78.21
2023-01-31T01:50:54.613Z,78.22
2023-01-31T01:53:23.262Z,77.49
2023-01-31T01:55:54.452Z,78.73
2023-01-31T01:58:24.054Z,78.13
2023-01-31T02:00:51.331Z,77.68
2023-01-31T02:03:18.743Z,78.16
2023-01-31T02:05:47.288Z,77.84
2023-01-31T02:08:16.109Z,79.13
2023-01-31T02:10:47.034Z,79.16
2023-01-31T02:13:14.883Z,79.04
2023-01-31T02:15:41.696Z,80.07
2023-01-31T02:18:09.213Z,79.73
2023-01-31T02:20:39.401Z,80.63
2023-01-31T02:23:06.980Z,81.49
2023-01-31T02:25:37.117Z,80.84
2023-01-31T02:28:07.235Z,81.00
2023-01-31T02:30:34.676Z,80.35
2023-01-31T02:33:04.880Z,80.24
2023-01-31T02:35:33.258Z,81.32
2023-01-31T02:38:03.860Z,81.22
2023-01-31T02:40:31.275Z,80.73
2023-01-31T02:43:01.577Z,81.43
2023-01-31T02:45:31.836Z,80.98
2023-01-31T02:47:59.197Z,80.35
2023-01-31T02:50:30.070Z,81.14
2023-01-31T02:52:59.840Z,80.62
2023-01-31T02:55:30.259Z,80.74
2023-01-31T02:57:58.513Z,80.82
2023-01-31T03:00:26.645Z,80.61
2023-01-31T03:02:53.773Z,80.98
2023-01-31T03:05:21.657Z,80.75
2023-01-31T03:07:52.036Z,81.57
2023-01-31T03:10:22.217Z,81.16
2023-01-31T03:12:57.631Z,81.24
2023-01-31T03:15:27.884Z,81.57
2023-01-31T03:17:55.291Z,81.18
2023-01-31T03:20:25.613Z,81.42
2023-01-31T03:22:55.943Z,81.19
2023-01-31T03:25:25.185Z,81.38
2023-01-31T03:27:55.955Z,81.68
2023-01-31T03:30:28.174Z,81.66
2023-01-31T03:32:58.342Z,81.61
2023-01-31T03:35:28.120Z,81.87
2023-01-31T03:38:00.261Z,81.31
2023-01-31T03:40:31.102Z,81.20
2023-01-31T03:43:01.956Z,81.23
2023-01-31T03:45:33.039Z,82.03
2023-01-31T03:48:01.193Z,81.77
2023-01-31T03:50:31.735Z,81.44
2023-01-31T03:53:02.013Z,82.25
2023-01-31T03:55:32.659Z,81.69
2023-01-31T03:58:00.882Z,81.12
2023-01-31T04:00:28.875Z,81.36
2023-01-31T04:03:01.770Z,81.38
2023-01-31T04:05:32.660Z,81.93
2023-01-31T04:08:00.312Z,81.73
2023-01-31T04:10:27.444Z,81.42
2023-01-31T04:12:54.513Z,81.26
2023-01-31T04:15:22.627Z,81.00
2023-01-31T04:17:49.899Z,81.50
2023-01-31T04:20:17.131Z,82.09
2023-01-31T04:22:44.206Z,81.65
2023-01-31T04:25:11.666Z,81.99
2023-01-31T04:27:39.497Z,81.88
2023-01-31T04:30:07.378Z,82.33
2023-01-31T04:32:34.605Z,81.99
2023-01-31T04:35:02.616Z,82.45
2023-01-31T04:37:29.836Z,82.87
2023-01-31T04:39:57.136Z,82.42
2023-01-31T04:42:24.187Z,82.61
2023-01-31T04:44:51.263Z,82.35
2023-01-31T04:47:18.355Z,82.27
2023-01-31T04:49:45.513Z,82.73
2023-01-31T04:52:12.752Z,82.70
2023-01-31T04:54:39.809Z,82.78
2023-01-31T04:57:06.916Z,83.18
2023-01-31T04:59:33.979Z,83.14
2023-01-31T05:02:01.053Z,83.32
2023-01-31T05:04:28.110Z,83.48
2023-01-31T05:06:55.179Z,83.63
2023-01-31T05:09:23.229Z,83.92
2023-01-31T05:11:50.339Z,83.48
2023-01-31T05:14:17.759Z,83.87
2023-01-31T05:16:47.636Z,83.90
2023-01-31T05:19:16.208Z,83.92
2023-01-31T05:21:46.655Z,84.36
2023-01-31T05:24:13.698Z,84.07
2023-01-31T05:26:40.812Z,83.70
2023-01-31T05:29:08.106Z,84.07
2023-01-31T05:31:35.260Z,84.54
2023-01-31T05:34:02.775Z,83.84
2023-01-31T05:36:29.859Z,84.60
2023-01-31T05:38:56.916Z,84.38
2023-01-31T05:41:24.135Z,84.57
2023-01-31T05:43:51.113Z,84.23
2023-01-31T05:46:18.217Z,84.47
2023-01-31T05:48:45.255Z,84.31
2023-01-31T05:51:12.315Z,83.87
2023-01-31T05:53:39.482Z,84.81
2023-01-31T05:56:06.877Z,85.05
2023-01-31T05:58:33.935Z,84.83
2023-01-31T06:01:01.124Z,84.53
2023-01-31T06:03:28.201Z,84.13
2023-01-31T06:05:55.556Z,84.86
2023-01-31T06:08:22.649Z,85.01
2023-01-31T06:10:49.705Z,84.77
2023-01-31T06:13:16.769Z,84.98
2023-01-31T06:15:44.341Z,85.21
2023-01-31T06:18:11.619Z,85.05
2023-01-31T06:20:39.256Z,85.13
2023-01-31T06:23:06.418Z,85.64
2023-01-31T06:25:33.436Z,85.87
2023-01-31T06:28:00.652Z,85.76
2023-01-31T06:30:27.777Z,85.17
2023-01-31T06:32:54.854Z,86.03
2023-01-31T06:35:22.472Z,85.76
2023-01-31T06:37:49.762Z,85.72
2023-01-31T06:40:17.056Z,86.09
2023-01-31T06:42:44.178Z,86.55
2023-01-31T06:45:11.559Z,86.62
2023-01-31T06:47:38.714Z,86.53
2023-01-31T06:50:06.115Z,86.38
2023-01-31T06:52:33.725Z,86.20
2023-01-31T06:55:00.999Z,86.10
2023-01-31T06:57:28.031Z,86.42
2023-01-31T06:59:55.135Z,86.14
2023-01-31T07:02:22.326Z,86.38
2023-01-31T07:04:49.500Z,86.39
2023-01-31T07:07:16.715Z,86.63
2023-01-31T07:09:43.877Z,86.30
2023-01-31T07:12:11.177Z,86.63
2023-01-31T07:14:38.445Z,86.55
2023-01-31T07:17:05.502Z,87.21
2023-01-31T07:19:32.621Z,87.57
2023-01-31T07:21:59.718Z,86.58
2023-01-31T07:24:26.749Z,86.48
2023-01-31T07:26:54.642Z,86.62
2023-01-31T07:29:21.868Z,86.46
2023-01-31T07:31:50.520Z,86.77
2023-01-31T07:38:39.697Z,87.03
2023-01-31T07:41:15.363Z,86.48
2023-01-31T07:43:42.478Z,86.55
2023-01-31T07:46:10.850Z,86.68
2023-01-31T07:48:38.219Z,86.16
2023-01-31T07:51:07.981Z,86.44
2023-01-31T07:53:37.022Z,86.73
2023-01-31T07:56:07.151Z,87.21
2023-01-31T07:58:37.452Z,87.22
2023-01-31T08:01:07.786Z,86.61
2023-01-31T08:03:40.733Z,87.57
2023-01-31T08:06:12.085Z,91.73
2023-01-31T08:09:00.487Z,92.54
2023-01-31T08:14:26.212Z,87.34
2023-01-31T08:16:53.189Z,87.31
2023-01-31T08:19:20.364Z,87.39
2023-01-31T08:21:47.264Z,86.77
2023-01-31T08:24:14.412Z,86.93
2023-01-31T08:26:42.790Z,86.99
2023-01-31T08:29:10.273Z,86.52
2023-01-31T08:31:37.425Z,86.68
2023-01-31T08:34:04.502Z,85.98
2023-01-31T08:36:33.015Z,85.73
2023-01-31T08:39:00.473Z,86.09
2023-01-31T08:41:28.328Z,86.23
2023-01-31T08:43:58.490Z,86.18
2023-01-31T08:46:27.876Z,86.38
2023-01-31T08:48:55.161Z,86.04
2023-01-31T08:51:22.536Z,85.75
2023-01-31T08:53:49.821Z,85.26
2023-01-31T08:56:17.123Z,85.49
2023-01-31T08:58:44.728Z,85.69
2023-01-31T09:01:12.849Z,85.73
2023-01-31T09:03:40.245Z,86.39
2023-01-31T09:06:08.482Z,86.02
2023-01-31T09:08:35.740Z,85.75
2023-01-31T09:11:03.178Z,85.53
2023-01-31T09:13:31.468Z,85.60
2023-01-31T09:15:59.819Z,85.34
2023-01-31T09:18:26.967Z,85.55
2023-01-31T09:20:54.073Z,85.00
2023-01-31T09:23:21.070Z,84.53
2023-01-31T09:25:51.254Z,84.02
2023-01-31T09:28:18.394Z,84.21
2023-01-31T09:30:45.586Z,85.10
2023-01-31T09:33:12.809Z,86.76
2023-01-31T09:35:39.801Z,85.07
2023-01-31T09:38:06.722Z,84.27
2023-01-31T09:40:36.508Z,84.12
2023-01-31T09:43:05.398Z,84.62
2023-01-31T09:45:33.409Z,84.83
2023-01-31T09:48:01.458Z,84.66
2023-01-31T09:50:31.953Z,84.01
2023-01-31T09:52:59.355Z,83.94
2023-01-31T09:55:33.071Z,83.90
2023-01-31T09:58:05.454Z,84.51
2023-01-31T10:00:37.108Z,85.04
2023-01-31T10:03:07.484Z,84.43
2023-01-31T10:05:37.527Z,84.27
2023-01-31T10:08:07.560Z,84.36
2023-01-31T10:10:37.627Z,84.28
2023-01-31T10:13:11.359Z,84.25
2023-01-31T10:15:43.266Z,84.31
2023-01-31T10:18:14.353Z,84.09
2023-01-31T10:20:46.747Z,84.37
2023-01-31T10:23:13.994Z,84.72
2023-01-31T10:25:48.021Z,84.33
2023-01-31T10:28:19.932Z,84.39
2023-01-31T10:30:52.353Z,84.57
2023-01-31T10:33:19.641Z,85.33
2023-01-31T10:35:48.647Z,85.32
2023-01-31T10:38:19.807Z,85.08
2023-01-31T10:40:49.261Z,85.07
2023-01-31T10:43:19.242Z,85.17
2023-01-31T10:45:46.280Z,84.98
2023-01-31T10:48:16.167Z,85.30
2023-01-31T10:50:43.959Z,84.84
2023-01-31T10:53:11.324Z,85.00
2023-01-31T10:55:45.354Z,85.25
2023-01-31T10:58:15.368Z,85.78
2023-01-31T11:00:42.696Z,85.35
2023-01-31T11:03:11.852Z,84.69
2023-01-31T11:05:44.322Z,84.87
2023-01-31T11:08:21.184Z,85.10
2023-01-31T11:10:51.211Z,85.29
2023-01-31T11:13:19.414Z,84.89
2023-01-31T11:15:48.684Z,85.22
2023-01-31T11:18:25.939Z,85.13
2023-01-31T11:20:52.888Z,85.99
2023-01-31T11:23:23.053Z,85.22
2023-01-31T11:25:51.350Z,85.14
2023-01-31T11:28:20.034Z,85.61
2023-01-31T11:30:50.078Z,85.59
2023-01-31T11:33:20.166Z,85.05
2023-01-31T11:35:52.352Z,84.97
2023-01-31T11:38:22.511Z,84.45
2023-01-31T11:40:49.565Z,84.45
2023-01-31T11:43:19.593Z,84.05
2023-01-31T11:45:47.551Z,83.81
2023-01-31T11:48:17.644Z,84.23
2023-01-31T11:50:46.171Z,83.99
2023-01-31T11:53:16.423Z,83.43
2023-01-31T11:55:43.704Z,83.16
2023-01-31T11:58:13.684Z,83.43
2023-01-31T12:00:45.021Z,82.96
2023-01-31T12:03:16.384Z,82.44
2023-01-31T12:05:45.113Z,82.89
2023-01-31T12:08:15.198Z,82.22
2023-01-31T12:10:43.195Z,81.67
2023-01-31T12:13:18.799Z,81.85
2023-01-31T12:15:49.357Z,81.73
2023-01-31T12:18:21.695Z,81.50
2023-01-31T12:20:59.141Z,81.31
2023-01-31T12:23:35.776Z,81.51
2023-01-31T12:26:06.080Z,81.46
2023-01-31T12:28:36.202Z,81.40
2023-01-31T12:31:09.524Z,80.88
2023-01-31T12:33:38.007Z,81.29
2023-01-31T12:36:05.233Z,81.37
2023-01-31T12:38:35.951Z,81.54
2023-01-31T12:41:06.031Z,81.21
2023-01-31T12:43:36.316Z,80.93
2023-01-31T12:46:09.995Z,80.75
2023-01-31T12:48:40.460Z,80.66
2023-01-31T12:51:10.495Z,80.41
2023-01-31T12:53:45.089Z,80.16
2023-01-31T12:56:15.250Z,79.21
2023-01-31T12:58:42.637Z,79.19
2023-01-31T13:01:10.031Z,78.83
2023-01-31T13:03:44.891Z,79.23
2023-01-31T13:06:16.007Z,78.59
2023-01-31T13:08:57.070Z,78.46
2023-01-31T13:11:35.378Z,78.53
2023-01-31T13:14:04.206Z,78.73
2023-01-31T13:16:34.648Z,78.13
2023-01-31T13:19:03.946Z,77.27
2023-01-31T13:21:34.121Z,77.60
2023-01-31T13:24:03.788Z,78.44
2023-01-31T13:26:33.783Z,78.31
2023-01-31T13:29:03.853Z,77.64
2023-01-31T13:31:34.413Z,77.70
2023-01-31T13:34:07.544Z,77.66
2023-01-31T13:36:41.760Z,77.56
2023-01-31T13:39:16.057Z,76.52
2023-01-31T13:41:43.082Z,75.91
2023-01-31T13:44:13.079Z,74.79
2023-01-31T13:46:41.358Z,74.37
2023-01-31T13:49:11.330Z,73.93
2023-01-31T13:51:40.759Z,73.49
2023-01-31T13:54:16.505Z,74.29
2023-01-31T13:56:47.297Z,72.35
2023-01-31T13:59:20.308Z,71.41
2023-01-31T14:01:48.787Z,71.41
2023-01-31T14:04:16.237Z,71.84
2023-01-31T14:06:46.267Z,71.57
2023-01-31T14:09:20.938Z,70.85
2023-01-31T14:11:47.862Z,71.18
2023-01-31T14:14:19.407Z,70.97
2023-01-31T14:16:46.925Z,70.08
2023-01-31T14:19:16.867Z,69.62
2023-01-31T14:21:44.208Z,66.85
2023-01-31T14:24:18.985Z,66.63
2023-01-31T14:26:46.360Z,66.60
2023-01-31T14:29:17.173Z,65.82
2023-01-31T14:31:45.218Z,65.15
2023-01-31T14:34:15.328Z,64.79
2023-01-31T14:36:53.337Z,64.95
2023-01-31T14:39:21.618Z,63.90
2023-01-31T14:41:52.037Z,63.24
2023-01-31T14:44:29.407Z,61.70
2023-01-31T14:47:07.814Z,61.49
2023-01-31T14:49:35.428Z,62.42
2023-01-31T14:52:05.412Z,61.56
2023-01-31T14:54:40.599Z,60.74
2023-01-31T14:57:07.864Z,60.62
2023-01-31T14:59:39.475Z,61.17
2023-01-31T15:02:09.565Z,60.31
2023-01-31T15:04:36.629Z,60.42
2023-01-31T15:07:03.558Z,60.67
2023-01-31T15:09:33.551Z,61.23
2023-01-31T15:12:01.585Z,61.48
2023-01-31T15:14:36.275Z,61.28
2023-01-31T15:17:06.738Z,62.50
2023-01-31T15:19:40.982Z,62.83
2023-01-31T15:22:10.099Z,62.55
2023-01-31T15:24:39.908Z,62.55
2023-01-31T15:27:09.443Z,62.69
2023-01-31T15:29:39.467Z,60.36
2023-01-31T15:32:14.634Z,59.61
2023-01-31T15:34:47.909Z,58.97
2023-01-31T15:37:20.638Z,59.02
2023-01-31T15:39:53.276Z,58.64
2023-01-31T15:42:21.967Z,59.15
2023-01-31T15:44:48.887Z,59.12
2023-01-31T15:47:20.264Z,58.88
2023-01-31T15:49:47.288Z,60.26
2023-01-31T15:52:17.329Z,59.16
2023-01-31T15:54:47.305Z,58.84
2023-01-31T15:57:16.636Z,59.25
2023-01-31T15:59:44.912Z,59.07
2023-01-31T16:02:19.857Z,59.49
2023-01-31T16:04:47.006Z,59.38
2023-01-31T16:07:17.152Z,58.90
2023-01-31T16:09:44.416Z,58.18
2023-01-31T16:12:11.921Z,58.02
2023-01-31T16:14:39.527Z,57.95
2023-01-31T16:17:06.996Z,58.71
2023-01-31T16:19:36.257Z,59.80
2023-01-31T16:22:03.420Z,58.90
2023-01-31T16:24:32.362Z,59.05
2023-01-31T16:27:03.400Z,58.25
2023-01-31T16:29:33.624Z,57.56
2023-01-31T16:32:00.770Z,57.27
2023-01-31T16:34:30.774Z,58.01
2023-01-31T16:37:00.763Z,57.42
2023-01-31T16:39:29.235Z,57.88
2023-01-31T16:41:58.564Z,57.77
2023-01-31T16:44:27.978Z,57.49
2023-01-31T16:46:55.300Z,57.41
2023-01-31T16:49:22.820Z,57.68
2023-01-31T16:51:50.883Z,57.80
2023-01-31T16:54:21.012Z,58.92
2023-01-31T16:57:06.204Z,58.08
2023-01-31T16:59:34.573Z,57.93
2023-01-31T17:02:03.125Z,58.37
2023-01-31T17:04:30.638Z,58.00
2023-01-31T17:07:00.745Z,58.47
2023-01-31T17:09:28.801Z,59.05
2023-01-31T17:11:56.066Z,58.44
2023-01-31T17:14:23.545Z,58.16
2023-01-31T17:16:51.684Z,58.42
2023-01-31T17:19:18.686Z,58.17
2023-01-31T17:21:45.932Z,59.50
2023-01-31T17:24:14.710Z,59.37
2023-01-31T17:26:41.865Z,59.91
2023-01-31T17:29:09.048Z,59.78
2023-01-31T17:31:36.293Z,59.51
2023-01-31T17:34:04.131Z,59.83
2023-01-31T17:36:31.286Z,60.19
2023-01-31T17:38:58.516Z,60.49
2023-01-31T17:41:26.270Z,60.29
2023-01-31T17:43:53.413Z,61.17
2023-01-31T17:46:20.703Z,60.93
2023-01-31T17:48:48.379Z,61.31
2023-01-31T17:51:15.589Z,61.31
2023-01-31T17:53:49.988Z,61.52
2023-01-31T17:56:18.938Z,61.89
2023-01-31T17:58:46.182Z,61.86
2023-01-31T18:01:14.634Z,62.17
2023-01-31T18:03:42.370Z,63.52
2023-01-31T18:06:12.722Z,63.45
2023-01-31T18:08:39.919Z,63.22
2023-01-31T18:11:09.047Z,63.83
2023-01-31T18:13:38.274Z,62.97
2023-01-31T18:16:07.285Z,63.78
2023-01-31T18:18:36.115Z,64.05
2023-01-31T18:21:05.940Z,62.84
2023-01-31T18:23:33.180Z,63.48
2023-01-31T18:26:03.930Z,63.12
2023-01-31T18:28:31.132Z,63.40
2023-01-31T18:31:01.668Z,63.00
2023-01-31T18:33:29.547Z,62.80
2023-01-31T18:35:58.061Z,63.17
2023-01-31T18:38:26.036Z,62.32
2023-01-31T18:40:53.632Z,62.15
2023-01-31T18:43:21.933Z,63.17
2023-01-31T18:45:49.016Z,63.34
2023-01-31T18:48:16.109Z,63.65
2023-01-31T18:50:43.561Z,63.09
2023-01-31T18:53:10.682Z,63.56
2023-01-31T18:55:37.848Z,63.40
2023-01-31T18:58:05.044Z,62.93
2023-01-31T19:00:32.832Z,63.54
2023-01-31T19:03:00.099Z,62.88
2023-01-31T19:05:27.762Z,61.54
2023-01-31T19:07:54.906Z,62.23
2023-01-31T19:10:22.163Z,61.09
2023-01-31T19:12:49.720Z,61.22
2023-01-31T19:15:17.174Z,61.18
2023-01-31T19:17:44.267Z,61.80
2023-01-31T19:20:11.890Z,62.54
2023-01-31T19:22:39.025Z,62.50
2023-01-31T19:25:09.335Z,63.09
2023-01-31T19:27:36.429Z,62.68
2023-01-31T19:30:03.805Z,63.55
2023-01-31T19:32:31.546Z,61.50
2023-01-31T19:34:58.571Z,61.11
2023-01-31T19:37:25.562Z,61.37
2023-01-31T19:39:52.648Z,61.91
2023-01-31T19:42:20.875Z,62.81
2023-01-31T19:44:47.838Z,62.76
2023-01-31T19:47:14.913Z,62.23
2023-01-31T19:49:41.850Z,61.97
2023-01-31T19:52:08.858Z,61.77
2023-01-31T19:54:35.959Z,62.21
2023-01-31T19:57:03.203Z,61.80
2023-01-31T19:59:30.141Z,62.53
2023-01-31T20:01:57.215Z,62.29
2023-01-31T20:04:24.302Z,62.29
2023-01-31T20:06:51.587Z,61.94
2023-01-31T20:09:20.512Z,62.42
2023-01-31T20:11:47.591Z,63.01
2023-01-31T20:14:14.670Z,63.03
2023-01-31T20:16:41.662Z,63.61
2023-01-31T20:19:08.654Z,64.37
2023-01-31T20:21:37.460Z,63.58
2023-01-31T20:24:05.132Z,64.05
2023-01-31T20:26:33.088Z,63.33
2023-01-31T20:29:00.234Z,64.23
2023-01-31T20:31:27.606Z,64.61
2023-01-31T20:33:55.319Z,63.80
2023-01-31T20:36:23.977Z,63.55
2023-01-31T20:38:51.205Z,62.91
2023-01-31T20:41:18.138Z,63.28
2023-01-31T20:43:45.478Z,62.84
2023-01-31T20:46:13.524Z,63.24
2023-01-31T20:48:41.195Z,63.00
2023-01-31T20:51:08.264Z,63.42
2023-01-31T20:53:36.042Z,63.34
2023-01-31T20:56:03.352Z,63.09
2023-01-31T20:58:32.140Z,63.75
2023-01-31T21:01:00.331Z,63.89
2023-01-31T21:03:28.288Z,64.92
2023-01-31T21:05:57.504Z,64.09
2023-01-31T21:08:24.524Z,64.26
2023-01-31T21:10:52.251Z,64.58
2023-01-31T21:13:20.179Z,63.95
2023-01-31T21:15:50.363Z,64.02
2023-01-31T21:18:17.315Z,64.00
2023-01-31T21:20:44.545Z,65.69
2023-01-31T21:23:11.723Z,67.73
2023-01-31T21:25:38.737Z,67.07
2023-01-31T21:28:05.730Z,65.88
2023-01-31T21:30:32.818Z,66.10
2023-01-31T21:32:59.819Z,65.57
2023-01-31T21:35:26.930Z,67.00
2023-01-31T21:37:54.029Z,65.57
2023-01-31T21:40:21.404Z,65.77
2023-01-31T21:42:51.541Z,65.93
2023-01-31T21:45:38.602Z,67.28
2023-01-31T21:48:10.736Z,67.37
2023-01-31T21:50:37.695Z,66.78
2023-01-31T21:53:04.563Z,67.19
2023-01-31T21:55:31.517Z,67.19
2023-01-31T21:57:58.474Z,68.21
2023-01-31T22:00:25.430Z,66.96
2023-01-31T22:02:52.921Z,68.25
2023-01-31T22:05:19.778Z,67.73
2023-01-31T22:07:46.786Z,67.92
2023-01-31T22:10:13.794Z,67.65
2023-01-31T22:12:40.786Z,68.52
2023-01-31T22:15:08.335Z,68.59
2023-01-31T22:17:35.391Z,69.30
2023-01-31T22:20:02.395Z,69.29
2023-01-31T22:22:29.341Z,69.59
2023-01-31T22:24:56.279Z,69.89
2023-01-31T22:27:23.297Z,69.71
2023-01-31T22:29:50.116Z,69.87
2023-01-31T22:32:17.028Z,69.78
2023-01-31T22:34:44.051Z,69.40
2023-01-31T22:37:11.112Z,70.66
2023-01-31T22:39:38.019Z,70.46
2023-01-31T22:42:05.006Z,70.01
2023-01-31T22:44:31.894Z,69.97
2023-01-31T22:46:58.778Z,70.06
2023-01-31T22:49:25.647Z,68.48
2023-01-31T22:51:52.692Z,69.32
2023-01-31T22:54:19.582Z,69.22
2023-01-31T22:56:46.459Z,69.19
2023-01-31T22:59:13.416Z,69.38
2023-01-31T23:01:40.345Z,69.51
2023-01-31T23:04:08.364Z,70.27
2023-01-31T23:06:35.914Z,70.73
2023-01-31T23:09:03.004Z,69.93
2023-01-31T23:11:29.877Z,70.43
2023-01-31T23:14:00.652Z,70.92
2023-01-31T23:16:47.502Z,71.10
2023-01-31T23:19:15.037Z,70.71
2023-01-31T23:21:43.441Z,69.98
2023-01-31T23:24:11.265Z,69.74
2023-01-31T23:26:38.383Z,69.71
2023-01-31T23:29:05.499Z,69.78
2023-01-31T23:31:32.738Z,70.25
2023-01-31T23:34:00.886Z,70.08
2023-01-31T23:36:28.173Z,70.23
2023-01-31T23:38:55.366Z,71.20
2023-01-31T23:41:22.237Z,72.12
2023-01-31T23:43:49.114Z,70.83
2023-01-31T23:46:16.071Z,70.60
2023-01-31T23:48:43.645Z,70.27
2023-01-31T23:51:10.633Z,70.21
2023-01-31T23:53:37.585Z,70.33
2023-01-31T23:56:04.656Z,70.36
2023-01-31T23:58:31.484Z,70.79
